Time;durP1;ratioP1;P1;durP2;ratioP2;P2;SDS_P1;SDS_P2;PMS_P1;PMS_P2;Temp;Humidity;BMP_temperature;BMP_pressure;BME280_temperature;BME280_humidity;BME280_pressure;Samples;Min_cycle;Max_cycle;Signal;HPM_P1;HPM_P2
2024/01/07 00:01:26;;;;;;;12.57;11.23;;;4.10;99.90;;;;;;5092601;28;20206;-84
2024/01/07 00:03:52;;;;;;;12.47;9.83;;;4.20;99.90;;;;;;5092480;28;20207;-85
2024/01/07 00:06:18;;;;;;;13.73;10.67;;;4.20;99.90;;;;;;5092290;28;20652;-85
2024/01/07 00:08:43;;;;;;;11.27;9.73;;;4.30;99.90;;;;;;5092446;28;20180;-84
2024/01/07 00:11:09;;;;;;;11.53;9.93;;;4.20;99.90;;;;;;5092348;28;20175;-85
2024/01/07 00:13:35;;;;;;;13.97;10.73;;;4.40;99.90;;;;;;5092156;28;20167;-87
2024/01/07 00:16:01;;;;;;;12.53;10.00;;;4.50;99.90;;;;;;5093533;28;20171;-90
2024/01/07 00:18:27;;;;;;;12.37;10.83;;;4.30;99.90;;;;;;5094219;28;20305;-86
2024/01/07 00:20:53;;;;;;;12.27;10.10;;;4.30;99.90;;;;;;5094213;28;20204;-86
2024/01/07 00:23:20;;;;;;;13.43;10.70;;;4.40;99.90;;;;;;5094855;28;20656;-87
2024/01/07 00:25:47;;;;;;;13.67;10.87;;;4.30;99.70;;;;;;5091953;28;20275;-85
2024/01/07 00:28:13;;;;;;;13.37;10.97;;;4.30;99.90;;;;;;5092476;28;20176;-85
2024/01/07 00:30:38;;;;;;;13.13;10.90;;;4.30;99.90;;;;;;5092152;28;20692;-85
2024/01/07 00:33:04;;;;;;;14.30;11.60;;;4.30;99.90;;;;;;5092165;28;20218;-87
2024/01/07 00:35:30;;;;;;;12.87;11.03;;;4.40;99.90;;;;;;5092083;28;20190;-88
2024/01/07 00:37:58;;;;;;;12.87;11.03;;;4.40;99.90;;;;;;5092496;28;20643;-86
2024/01/07 00:40:24;;;;;;;12.00;10.27;;;4.50;99.10;;;;;;5092120;28;20183;-87
2024/01/07 00:42:51;;;;;;;12.50;9.77;;;4.50;97.50;;;;;;5092778;28;20211;-85
2024/01/07 00:45:17;;;;;;;12.03;10.00;;;4.40;97.10;;;;;;5092488;28;20188;-87
2024/01/07 00:47:43;;;;;;;13.23;11.27;;;4.30;96.30;;;;;;5092532;28;20233;-85
2024/01/07 00:50:08;;;;;;;11.27;9.17;;;4.40;96.80;;;;;;5092698;28;20176;-86
2024/01/07 00:52:36;;;;;;;13.40;10.03;;;4.30;96.30;;;;;;5093189;28;20175;-84
2024/01/07 00:55:04;;;;;;;12.93;10.63;;;4.20;95.80;;;;;;5092656;28;20179;-88
2024/01/07 00:57:30;;;;;;;12.63;10.77;;;4.10;97.30;;;;;;5092701;28;20689;-86
2024/01/07 00:59:55;;;;;;;15.37;10.83;;;4.10;98.40;;;;;;5092609;28;20271;-86
2024/01/07 01:02:21;;;;;;;14.43;12.17;;;4.30;99.20;;;;;;5092795;28;20203;-83
2024/01/07 01:04:47;;;;;;;14.33;11.30;;;4.30;98.10;;;;;;5092206;28;20172;-84
2024/01/07 01:07:14;;;;;;;14.07;11.10;;;4.30;98.10;;;;;;5092255;28;20193;-84
2024/01/07 01:09:39;;;;;;;15.23;11.13;;;4.30;97.50;;;;;;5095697;28;20576;-87
2024/01/07 01:12:05;;;;;;;13.03;10.97;;;4.30;97.90;;;;;;5096177;28;20217;-88
2024/01/07 01:14:31;;;;;;;13.23;11.03;;;4.20;97.90;;;;;;5096253;28;20631;-89
2024/01/07 01:16:56;;;;;;;13.23;10.27;;;4.20;98.00;;;;;;5095690;28;20504;-86
2024/01/07 01:19:24;;;;;;;13.93;11.13;;;4.20;97.10;;;;;;5095925;28;20172;-85
2024/01/07 01:21:51;;;;;;;13.87;10.93;;;4.20;97.00;;;;;;5095451;28;20707;-85
2024/01/07 01:24:17;;;;;;;16.03;11.17;;;4.40;97.60;;;;;;5095489;28;20211;-85
2024/01/07 01:26:42;;;;;;;12.17;10.30;;;4.30;96.80;;;;;;5095438;28;20172;-84
2024/01/07 01:29:08;;;;;;;14.30;11.63;;;4.20;96.90;;;;;;5095934;28;20549;-86
2024/01/07 01:31:34;;;;;;;12.83;9.53;;;4.30;96.50;;;;;;5095691;28;20168;-87
2024/01/07 01:33:59;;;;;;;13.27;9.73;;;4.10;94.60;;;;;;5095393;28;20184;-86
2024/01/07 01:36:26;;;;;;;11.90;10.47;;;4.10;95.10;;;;;;5095117;28;20167;-87
2024/01/07 01:38:52;;;;;;;11.57;9.53;;;4.10;95.70;;;;;;5095313;28;20178;-85
2024/01/07 01:41:17;;;;;;;12.53;10.80;;;4.30;95.20;;;;;;5095396;28;20168;-84
2024/01/07 01:43:43;;;;;;;15.63;10.93;;;4.10;96.10;;;;;;5095109;28;20738;-85
2024/01/07 01:46:09;;;;;;;14.13;11.23;;;4.10;96.50;;;;;;5095737;28;20203;-87
2024/01/07 01:48:36;;;;;;;12.17;10.30;;;4.10;96.30;;;;;;5096144;28;20199;-86
2024/01/07 01:51:02;;;;;;;12.93;10.00;;;4.10;96.50;;;;;;5098095;28;20259;-86
2024/01/07 01:53:29;;;;;;;12.47;9.80;;;4.10;96.70;;;;;;5096705;28;20254;-87
2024/01/07 01:55:57;;;;;;;11.70;10.17;;;4.20;96.80;;;;;;5096060;28;20168;-85
2024/01/07 01:58:23;;;;;;;12.00;10.13;;;4.10;97.40;;;;;;5095230;28;20183;-85
2024/01/07 02:00:53;;;;;;;13.30;11.73;;;4.10;96.80;;;;;;5095991;28;20648;-87
2024/01/07 02:03:19;;;;;;;12.10;9.23;;;4.20;97.70;;;;;;5094886;28;20294;-87
2024/01/07 02:05:45;;;;;;;14.93;10.50;;;4.00;97.00;;;;;;5094809;28;20209;-86
2024/01/07 02:08:11;;;;;;;15.97;11.90;;;4.20;98.30;;;;;;5094555;28;20525;-85
2024/01/07 02:10:37;;;;;;;14.67;11.23;;;4.00;99.30;;;;;;5095171;28;20206;-85
2024/01/07 02:13:03;;;;;;;14.43;12.17;;;3.90;99.40;;;;;;5095881;28;20237;-88
2024/01/07 02:15:30;;;;;;;14.77;11.93;;;3.90;99.90;;;;;;5094972;28;20255;-85
2024/01/07 02:17:56;;;;;;;13.50;9.67;;;3.90;99.90;;;;;;5094814;28;20179;-84
2024/01/07 02:20:22;;;;;;;13.87;10.90;;;3.80;98.20;;;;;;5094223;28;20175;-86
2024/01/07 02:22:47;;;;;;;13.10;9.27;;;3.60;96.80;;;;;;5094595;28;20333;-85
2024/01/07 02:25:13;;;;;;;13.13;9.50;;;3.50;94.90;;;;;;5094738;28;20191;-86
2024/01/07 02:27:39;;;;;;;12.07;8.50;;;3.60;94.40;;;;;;5094357;28;20172;-86
2024/01/07 02:30:05;;;;;;;12.67;10.50;;;3.40;93.70;;;;;;5094784;28;20182;-86
2024/01/07 02:32:35;;;;;;;13.13;9.60;;;3.40;94.30;;;;;;5094464;28;20689;-84
2024/01/07 02:35:01;;;;;;;12.50;10.33;;;3.50;92.90;;;;;;5094586;28;20232;-86
2024/01/07 02:37:27;;;;;;;15.00;10.57;;;3.50;94.10;;;;;;5094309;28;20179;-86
2024/01/07 02:39:53;;;;;;;12.60;9.30;;;3.50;94.10;;;;;;5094342;28;20692;-86
2024/01/07 02:42:18;;;;;;;12.17;10.13;;;3.70;93.60;;;;;;5094166;28;20172;-86
2024/01/07 02:44:44;;;;;;;13.23;9.83;;;3.50;93.50;;;;;;5094402;28;20657;-86
2024/01/07 02:47:10;;;;;;;12.13;8.33;;;3.50;92.40;;;;;;5094396;28;20281;-85
2024/01/07 02:49:35;;;;;;;12.97;10.13;;;3.50;92.70;;;;;;5094310;28;20207;-86
2024/01/07 02:52:01;;;;;;;15.30;11.77;;;3.50;92.80;;;;;;5094219;28;20308;-85
2024/01/07 02:54:27;;;;;;;13.67;9.63;;;3.40;93.70;;;;;;5094335;28;20659;-86
2024/01/07 02:56:52;;;;;;;13.60;10.63;;;3.30;93.00;;;;;;5093801;28;20202;-86
2024/01/07 02:59:18;;;;;;;12.93;10.03;;;3.40;93.10;;;;;;5094268;28;20572;-85
2024/01/07 03:01:43;;;;;;;14.90;11.33;;;3.30;93.90;;;;;;5094026;28;20175;-86
2024/01/07 03:04:12;;;;;;;14.70;11.13;;;3.30;94.20;;;;;;5093763;28;20215;-87
2024/01/07 03:06:38;;;;;;;17.80;13.57;;;3.30;94.60;;;;;;5093719;28;20187;-89
2024/01/07 03:09:03;;;;;;;15.90;11.77;;;3.30;95.00;;;;;;5094318;28;20182;-87
2024/01/07 03:11:29;;;;;;;14.77;11.20;;;3.20;95.20;;;;;;5096220;28;20163;-86
2024/01/07 03:13:56;;;;;;;15.30;12.07;;;3.40;95.80;;;;;;5094403;28;20182;-85
2024/01/07 03:16:23;;;;;;;14.27;10.30;;;3.20;96.50;;;;;;5094263;28;20167;-86
2024/01/07 03:18:49;;;;;;;17.67;12.53;;;3.40;96.30;;;;;;5093713;28;20175;-86
2024/01/07 03:21:19;;;;;;;16.63;13.40;;;3.20;97.30;;;;;;5099277;28;20172;-83
2024/01/07 03:23:45;;;;;;;18.37;13.10;;;3.30;98.20;;;;;;5093776;28;20207;-87
2024/01/07 03:26:12;;;;;;;15.33;12.47;;;3.30;98.30;;;;;;5094103;28;20282;-86
2024/01/07 03:28:37;;;;;;;18.20;13.40;;;3.50;97.80;;;;;;5095468;28;20247;-85
2024/01/07 03:31:12;;;;;;;17.97;13.37;;;3.50;97.60;;;;;;5093379;28;20253;-86
2024/01/07 03:33:38;;;;;;;18.13;13.87;;;3.40;97.80;;;;;;5097262;28;20171;-86
2024/01/07 03:36:08;;;;;;;18.10;14.07;;;3.50;98.00;;;;;;5094821;28;20160;-84
2024/01/07 03:38:35;;;;;;;17.57;12.37;;;3.40;98.10;;;;;;5093815;28;20207;-86
2024/01/07 03:41:00;;;;;;;18.13;14.30;;;3.30;97.90;;;;;;5093799;28;20234;-85
2024/01/07 03:43:26;;;;;;;17.00;13.53;;;3.40;99.20;;;;;;5093027;28;20211;-86
2024/01/07 03:45:52;;;;;;;18.43;13.50;;;3.40;99.90;;;;;;5092990;28;20167;-86
2024/01/07 03:48:17;;;;;;;18.63;13.53;;;3.30;98.90;;;;;;5092839;28;20176;-84
2024/01/07 03:50:43;;;;;;;19.13;14.70;;;3.20;99.10;;;;;;5093302;28;20565;-85
2024/01/07 03:53:09;;;;;;;20.63;15.03;;;3.20;99.90;;;;;;5093073;28;20175;-87
2024/01/07 03:55:35;;;;;;;21.67;15.30;;;3.20;99.90;;;;;;5093009;28;20174;-87
2024/01/07 03:58:00;;;;;;;20.73;15.67;;;3.20;99.90;;;;;;5093001;28;20215;-85
2024/01/07 04:00:26;;;;;;;18.97;14.00;;;3.20;99.90;;;;;;5093003;28;20168;-83
2024/01/07 04:02:51;;;;;;;21.27;16.30;;;3.20;99.80;;;;;;5092395;28;20549;-83
2024/01/07 04:05:17;;;;;;;20.10;15.83;;;3.20;99.90;;;;;;5092854;28;20636;-87
2024/01/07 04:07:43;;;;;;;20.10;16.10;;;3.20;99.90;;;;;;5092816;28;20178;-86
2024/01/07 04:10:09;;;;;;;21.20;17.10;;;3.40;99.90;;;;;;5092961;28;20171;-86
2024/01/07 04:12:34;;;;;;;20.43;16.47;;;3.20;99.90;;;;;;5093245;28;20178;-86
2024/01/07 04:15:00;;;;;;;22.90;16.60;;;3.30;99.90;;;;;;5094160;28;20164;-84
2024/01/07 04:17:26;;;;;;;22.37;17.30;;;3.40;99.90;;;;;;5094440;28;20652;-88
2024/01/07 04:19:52;;;;;;;23.13;17.30;;;3.40;99.10;;;;;;5093480;28;20175;-86
2024/01/07 04:22:18;;;;;;;23.33;17.17;;;3.30;98.70;;;;;;5092930;28;20175;-84
2024/01/07 04:24:44;;;;;;;23.40;18.30;;;3.10;98.50;;;;;;5093158;28;20278;-87
2024/01/07 04:27:10;;;;;;;22.80;15.83;;;3.20;99.80;;;;;;5093349;28;20666;-85
2024/01/07 04:29:35;;;;;;;23.37;17.43;;;3.10;99.90;;;;;;5093345;28;20175;-86
2024/01/07 04:32:01;;;;;;;24.80;19.30;;;3.00;99.90;;;;;;5093595;28;20261;-87
2024/01/07 04:34:27;;;;;;;25.77;19.17;;;3.00;99.90;;;;;;5092708;28;20643;-84
2024/01/07 04:36:52;;;;;;;27.80;20.27;;;3.00;99.90;;;;;;5093377;28;20547;-85
2024/01/07 04:39:18;;;;;;;25.77;18.10;;;3.10;99.90;;;;;;5092730;28;20172;-86
2024/01/07 04:41:44;;;;;;;28.03;18.40;;;3.10;99.90;;;;;;5093431;28;20171;-85
2024/01/07 04:44:09;;;;;;;27.67;19.53;;;3.10;99.90;;;;;;5096613;28;20251;-87
2024/01/07 04:46:38;;;;;;;27.83;19.17;;;3.00;99.90;;;;;;5096649;28;20171;-85
2024/01/07 04:49:04;;;;;;;28.40;19.73;;;3.20;99.90;;;;;;5096758;28;20179;-87
2024/01/07 04:51:30;;;;;;;29.90;22.10;;;3.00;99.90;;;;;;5096675;28;20180;-84
2024/01/07 04:53:55;;;;;;;29.67;20.20;;;2.90;99.90;;;;;;5096332;28;20263;-84
2024/01/07 04:56:21;;;;;;;29.03;21.53;;;3.00;99.90;;;;;;5096381;28;20259;-86
2024/01/07 04:58:47;;;;;;;28.57;20.50;;;3.00;99.90;;;;;;5096520;28;20647;-86
2024/01/07 05:01:12;;;;;;;29.53;20.70;;;3.10;99.90;;;;;;5095971;28;20228;-86
2024/01/07 05:03:38;;;;;;;29.30;20.20;;;3.00;99.90;;;;;;5096243;28;20686;-84
2024/01/07 05:06:04;;;;;;;26.57;17.93;;;2.90;99.90;;;;;;5095986;28;20168;-86
2024/01/07 05:08:30;;;;;;;35.03;23.47;;;2.90;99.90;;;;;;5096544;28;20191;-86
2024/01/07 05:10:56;;;;;;;35.47;23.13;;;2.80;99.90;;;;;;5096132;28;20657;-87
2024/01/07 05:13:22;;;;;;;28.47;19.27;;;2.90;99.90;;;;;;5096159;28;20258;-87
2024/01/07 05:15:53;;;;;;;33.30;21.23;;;3.00;99.90;;;;;;5104885;28;20179;-83
2024/01/07 05:18:21;;;;;;;32.57;22.40;;;3.00;99.90;;;;;;5104267;28;20232;-82
2024/01/07 05:20:47;;;;;;;34.80;22.90;;;2.90;99.90;;;;;;5106350;28;20350;-82
2024/01/07 05:23:13;;;;;;;34.97;23.40;;;2.90;99.90;;;;;;5101231;28;20265;-83
2024/01/07 05:25:38;;;;;;;31.07;20.80;;;2.80;99.90;;;;;;5099367;28;20659;-84
2024/01/07 05:28:04;;;;;;;32.43;23.17;;;2.90;99.90;;;;;;5100200;28;20175;-84
2024/01/07 05:30:30;;;;;;;31.27;22.80;;;2.80;99.90;;;;;;5099778;28;20537;-84
2024/01/07 05:32:56;;;;;;;34.67;21.93;;;2.90;99.90;;;;;;5095753;28;20206;-86
2024/01/07 05:35:21;;;;;;;34.20;23.17;;;3.00;99.90;;;;;;5095787;28;20172;-85
2024/01/07 05:37:47;;;;;;;31.43;22.57;;;2.90;99.90;;;;;;5096027;28;20632;-86
2024/01/07 05:40:14;;;;;;;29.57;21.80;;;3.00;99.90;;;;;;5095552;28;20180;-84
2024/01/07 05:42:39;;;;;;;31.47;22.47;;;2.90;99.90;;;;;;5095573;28;20215;-84
2024/01/07 05:45:05;;;;;;;28.23;21.80;;;3.00;99.90;;;;;;5095132;28;20186;-86
2024/01/07 05:47:31;;;;;;;31.97;20.80;;;2.80;99.90;;;;;;5096130;28;20168;-85
2024/01/07 05:49:57;;;;;;;29.50;21.03;;;2.80;99.90;;;;;;5096787;28;20209;-86
2024/01/07 05:52:23;;;;;;;28.70;21.27;;;2.90;99.90;;;;;;5095854;28;20179;-87
2024/01/07 05:54:48;;;;;;;29.17;21.33;;;3.00;99.90;;;;;;5095166;28;20228;-86
2024/01/07 05:57:14;;;;;;;24.93;18.07;;;2.90;99.90;;;;;;5098261;28;20233;-86
2024/01/07 05:59:40;;;;;;;27.60;20.43;;;2.90;99.90;;;;;;5097422;28;20179;-85
2024/01/07 06:02:05;;;;;;;30.87;22.10;;;3.00;99.90;;;;;;5095075;28;20175;-85
2024/01/07 06:04:31;;;;;;;26.87;19.33;;;2.90;99.90;;;;;;5094880;28;20207;-84
2024/01/07 06:06:58;;;;;;;29.00;21.17;;;3.00;99.90;;;;;;5094910;28;20180;-87
2024/01/07 06:09:24;;;;;;;24.47;18.03;;;3.10;99.90;;;;;;5094986;28;20228;-87
2024/01/07 06:11:50;;;;;;;28.37;20.77;;;2.90;99.90;;;;;;5094684;28;20179;-84
2024/01/07 06:14:16;;;;;;;26.90;19.80;;;2.90;99.90;;;;;;5094742;28;20172;-87
2024/01/07 06:16:42;;;;;;;27.63;21.27;;;2.90;99.90;;;;;;5094641;28;20198;-85
2024/01/07 06:19:08;;;;;;;28.73;21.23;;;3.00;99.90;;;;;;5094831;28;20706;-87
2024/01/07 06:21:34;;;;;;;28.50;20.47;;;3.00;99.90;;;;;;5094737;28;20278;-87
2024/01/07 06:23:59;;;;;;;30.83;21.27;;;2.90;99.90;;;;;;5094816;28;20658;-88
2024/01/07 06:26:25;;;;;;;28.27;20.20;;;2.90;99.90;;;;;;5094848;28;20218;-88
2024/01/07 06:28:51;;;;;;;29.97;20.50;;;2.80;99.90;;;;;;5094519;28;20665;-87
2024/01/07 06:31:17;;;;;;;27.73;20.03;;;2.90;99.90;;;;;;5094769;28;20262;-88
2024/01/07 06:33:43;;;;;;;32.30;21.37;;;2.80;99.90;;;;;;5094637;28;20176;-87
2024/01/07 06:36:08;;;;;;;30.80;21.50;;;2.90;99.90;;;;;;5094675;28;20172;-87
2024/01/07 06:38:34;;;;;;;33.70;23.47;;;2.80;99.90;;;;;;5094431;28;20236;-88
2024/01/07 06:41:03;;;;;;;33.70;22.37;;;2.90;99.90;;;;;;5094748;28;20651;-87
2024/01/07 06:43:29;;;;;;;32.77;20.87;;;2.90;99.90;;;;;;5094227;28;20207;-86
2024/01/07 06:45:55;;;;;;;36.57;22.30;;;3.00;99.90;;;;;;5094429;28;20167;-84
2024/01/07 06:48:22;;;;;;;38.13;22.70;;;3.00;99.90;;;;;;5094964;28;20289;-85
2024/01/07 06:50:47;;;;;;;31.00;20.60;;;2.80;99.90;;;;;;5094376;28;20183;-88
2024/01/07 06:53:13;;;;;;;37.63;22.67;;;2.80;99.90;;;;;;5094119;28;20668;-87
2024/01/07 06:55:39;;;;;;;35.73;22.70;;;2.80;99.90;;;;;;5094343;28;20182;-88
2024/01/07 06:58:05;;;;;;;36.53;23.03;;;2.80;99.90;;;;;;5093821;28;20180;-86
2024/01/07 07:00:31;;;;;;;38.97;24.00;;;2.80;99.90;;;;;;5094218;28;20182;-87
2024/01/07 07:02:56;;;;;;;35.23;20.67;;;2.90;99.90;;;;;;5093724;28;20211;-87
2024/01/07 07:05:23;;;;;;;38.00;23.63;;;2.80;99.90;;;;;;5094355;28;20642;-84
2024/01/07 07:07:49;;;;;;;32.37;20.67;;;2.80;99.90;;;;;;5094846;28;20198;-85
2024/01/07 07:10:15;;;;;;;37.57;24.50;;;2.70;99.90;;;;;;5096456;28;20172;-86
2024/01/07 07:12:41;;;;;;;41.10;25.10;;;2.80;99.90;;;;;;5095138;28;20273;-84
2024/01/07 07:15:09;;;;;;;38.60;22.80;;;2.80;99.90;;;;;;5095155;28;20639;-84
2024/01/07 07:17:36;;;;;;;34.47;20.50;;;2.80;99.90;;;;;;5095500;28;20168;-85
2024/01/07 07:20:02;;;;;;;36.33;21.47;;;3.00;99.90;;;;;;5096066;28;20213;-86
2024/01/07 07:22:28;;;;;;;42.37;26.83;;;2.70;99.90;;;;;;5094330;28;20168;-87
2024/01/07 07:24:54;;;;;;;35.77;23.53;;;2.80;99.90;;;;;;5094012;28;20219;-85
2024/01/07 07:27:20;;;;;;;38.63;20.07;;;2.80;99.90;;;;;;5100087;28;20174;-86
2024/01/07 07:29:46;;;;;;;45.00;25.37;;;2.70;99.90;;;;;;5106714;28;20623;-87
2024/01/07 07:32:11;;;;;;;46.47;25.77;;;2.60;99.90;;;;;;5105994;28;20193;-87
2024/01/07 07:34:37;;;;;;;40.33;26.53;;;2.90;99.90;;;;;;5096324;28;20171;-88
2024/01/07 07:37:03;;;;;;;43.47;26.93;;;2.90;99.90;;;;;;5095841;28;20175;-86
2024/01/07 07:39:29;;;;;;;43.70;25.50;;;2.70;99.90;;;;;;5094050;28;20168;-87
2024/01/07 07:41:56;;;;;;;44.37;25.33;;;2.70;99.90;;;;;;5093973;28;20171;-86
2024/01/07 07:44:22;;;;;;;43.67;25.90;;;2.70;99.90;;;;;;5093240;28;20690;-86
2024/01/07 07:46:47;;;;;;;45.67;28.00;;;2.70;99.90;;;;;;5093524;28;20167;-88
2024/01/07 07:49:13;;;;;;;44.03;26.53;;;2.80;99.90;;;;;;5093556;28;20654;-87
2024/01/07 07:51:39;;;;;;;45.93;24.93;;;2.80;99.90;;;;;;5093491;28;20179;-88
2024/01/07 07:54:05;;;;;;;43.67;25.57;;;2.80;99.90;;;;;;5095396;28;20168;-87
2024/01/07 07:56:31;;;;;;;42.57;26.20;;;2.90;99.90;;;;;;5095548;28;20651;-84
2024/01/07 07:58:56;;;;;;;45.83;27.33;;;2.90;99.90;;;;;;5094325;28;20531;-87
2024/01/07 08:01:22;;;;;;;38.93;23.03;;;2.80;99.90;;;;;;5093242;28;20271;-85
2024/01/07 08:03:48;;;;;;;47.93;29.57;;;2.80;99.90;;;;;;5092976;28;20222;-86
2024/01/07 08:06:13;;;;;;;46.30;28.67;;;2.80;99.90;;;;;;5093140;28;20209;-84
2024/01/07 08:08:39;;;;;;;49.77;31.47;;;2.80;99.90;;;;;;5092952;28;20619;-86
2024/01/07 08:11:07;;;;;;;42.87;26.90;;;3.00;99.90;;;;;;5093038;28;20185;-87
2024/01/07 08:13:36;;;;;;;46.30;29.07;;;3.00;99.90;;;;;;5092985;28;20178;-85
2024/01/07 08:16:02;;;;;;;44.27;27.97;;;2.90;99.90;;;;;;5092840;28;20203;-85
2024/01/07 08:18:28;;;;;;;50.53;28.90;;;2.80;99.90;;;;;;5092610;28;20191;-84
2024/01/07 08:20:54;;;;;;;44.17;26.80;;;2.80;99.90;;;;;;5092820;28;20178;-88
2024/01/07 08:23:20;;;;;;;45.90;29.10;;;2.80;99.90;;;;;;5093742;28;20195;-85
2024/01/07 08:25:46;;;;;;;46.83;26.40;;;2.80;99.90;;;;;;5092570;28;20191;-86
2024/01/07 08:28:12;;;;;;;40.47;24.90;;;2.90;99.90;;;;;;5092332;28;20191;-85
2024/01/07 08:30:37;;;;;;;44.27;27.20;;;2.70;99.90;;;;;;5092475;28;20549;-88
2024/01/07 08:33:03;;;;;;;38.23;23.40;;;2.70;99.90;;;;;;5092880;28;20635;-86
2024/01/07 08:35:29;;;;;;;40.17;23.23;;;2.70;99.90;;;;;;5092312;28;20627;-87
2024/01/07 08:37:54;;;;;;;35.33;23.03;;;2.70;99.90;;;;;;5092692;28;20182;-87
2024/01/07 08:40:20;;;;;;;37.47;21.87;;;2.80;99.90;;;;;;5092814;28;20248;-84
2024/01/07 08:42:46;;;;;;;33.80;23.17;;;2.80;99.90;;;;;;5092680;28;20239;-84
2024/01/07 08:45:12;;;;;;;40.03;24.67;;;2.70;99.90;;;;;;5092912;28;20199;-86
2024/01/07 08:47:39;;;;;;;38.53;21.37;;;2.70;99.90;;;;;;5092496;28;20599;-86
2024/01/07 08:50:05;;;;;;;26.07;18.00;;;2.70;99.90;;;;;;5092256;28;20180;-86
2024/01/07 08:52:31;;;;;;;30.13;19.60;;;2.70;99.90;;;;;;5092230;28;20696;-84
2024/01/07 08:54:56;;;;;;;32.63;21.87;;;2.80;99.90;;;;;;5092386;28;20584;-86
2024/01/07 08:57:22;;;;;;;33.27;22.80;;;2.70;99.90;;;;;;5092475;28;20542;-88
2024/01/07 08:59:48;;;;;;;27.77;18.80;;;2.80;99.90;;;;;;5092506;28;20632;-87
2024/01/07 09:02:13;;;;;;;24.40;14.43;;;2.70;99.90;;;;;;5092398;28;20638;-84
2024/01/07 09:04:39;;;;;;;25.43;18.30;;;2.60;99.90;;;;;;5092566;28;20252;-87
2024/01/07 09:07:05;;;;;;;22.73;17.07;;;2.60;99.90;;;;;;5093181;28;20178;-84
2024/01/07 09:09:30;;;;;;;25.93;18.47;;;2.80;99.90;;;;;;5091999;28;20559;-87
2024/01/07 09:11:57;;;;;;;27.43;19.73;;;2.60;99.90;;;;;;5092049;28;20643;-87
2024/01/07 09:14:25;;;;;;;25.37;18.57;;;2.60;99.90;;;;;;5091849;28;20176;-86
2024/01/07 09:16:51;;;;;;;27.67;18.97;;;2.70;99.90;;;;;;5092009;28;20171;-85
2024/01/07 09:19:17;;;;;;;23.00;16.50;;;2.80;99.90;;;;;;5091812;28;20567;-86
2024/01/07 09:21:43;;;;;;;25.13;17.73;;;2.80;99.90;;;;;;5091896;28;20233;-87
2024/01/07 09:24:09;;;;;;;22.80;17.63;;;2.60;99.90;;;;;;5091769;28;20212;-85
2024/01/07 09:26:35;;;;;;;17.47;12.30;;;2.60;99.90;;;;;;5091889;28;20535;-86
2024/01/07 09:29:01;;;;;;;22.27;15.57;;;2.70;99.90;;;;;;5093116;28;20171;-84
2024/01/07 09:31:27;;;;;;;24.07;17.20;;;2.50;99.90;;;;;;5095451;28;20168;-84
2024/01/07 09:33:52;;;;;;;22.70;16.97;;;2.60;99.90;;;;;;5096640;28;20178;-84
2024/01/07 09:36:18;;;;;;;22.57;17.33;;;2.60;99.90;;;;;;5096263;28;20167;-85
2024/01/07 09:38:44;;;;;;;25.63;18.43;;;2.60;99.90;;;;;;5095423;28;20561;-83
2024/01/07 09:41:10;;;;;;;21.30;14.50;;;2.70;99.90;;;;;;5095441;28;20182;-86
2024/01/07 09:43:36;;;;;;;20.50;14.50;;;2.60;99.90;;;;;;5095352;28;20688;-84
2024/01/07 09:46:02;;;;;;;24.53;18.70;;;2.70;99.90;;;;;;5094975;28;20175;-86
2024/01/07 09:48:28;;;;;;;24.30;17.13;;;2.50;99.90;;;;;;5095443;28;20274;-85
2024/01/07 09:50:56;;;;;;;24.87;19.70;;;2.60;99.90;;;;;;5095266;28;20632;-87
2024/01/07 09:53:25;;;;;;;26.50;20.43;;;2.60;99.90;;;;;;5095933;28;20191;-87
2024/01/07 09:56:06;;;;;;;25.80;16.93;;;2.70;99.90;;;;;;5095776;28;20639;-88
2024/01/07 09:58:31;;;;;;;28.20;19.53;;;2.60;99.90;;;;;;5096067;28;20199;-86
2024/01/07 10:00:57;;;;;;;29.77;21.40;;;2.70;99.90;;;;;;5096561;28;20175;-83
2024/01/07 10:03:24;;;;;;;26.07;20.00;;;2.80;99.90;;;;;;5096376;28;20207;-88
2024/01/07 10:05:50;;;;;;;22.60;15.30;;;2.70;99.90;;;;;;5095911;28;20182;-87
2024/01/07 10:08:15;;;;;;;25.47;16.63;;;2.80;99.90;;;;;;5096922;28;20538;-88
2024/01/07 10:10:41;;;;;;;24.60;18.40;;;2.60;99.90;;;;;;5095581;28;20503;-84
2024/01/07 10:13:08;;;;;;;23.10;17.57;;;2.60;99.90;;;;;;5095698;28;20179;-87
2024/01/07 10:15:35;;;;;;;25.20;17.17;;;2.80;99.90;;;;;;5095740;28;20179;-88
2024/01/07 10:18:05;;;;;;;26.93;17.77;;;2.70;99.90;;;;;;5095571;28;20164;-86
2024/01/07 10:20:35;;;;;;;29.37;20.70;;;2.60;99.90;;;;;;5096652;28;20171;-85
2024/01/07 10:23:02;;;;;;;27.83;22.07;;;2.70;99.90;;;;;;5095109;28;20322;-86
2024/01/07 10:25:32;;;;;;;26.90;19.93;;;2.80;99.90;;;;;;5096776;28;20259;-87
2024/01/07 10:28:01;;;;;;;28.50;20.03;;;2.80;99.90;;;;;;5095435;28;20472;-83
2024/01/07 10:30:28;;;;;;;28.67;21.53;;;2.70;99.90;;;;;;5095127;28;20163;-87
2024/01/07 10:32:59;;;;;;;24.77;18.00;;;2.90;99.90;;;;;;5094525;28;20202;-83
2024/01/07 10:35:35;;;;;;;27.33;18.60;;;2.70;99.90;;;;;;5095262;28;20207;-83
2024/01/07 10:38:02;;;;;;;28.37;20.63;;;2.70;99.90;;;;;;5094392;28;20178;-86
2024/01/07 10:40:30;;;;;;;27.03;19.67;;;2.70;99.90;;;;;;5094554;28;20259;-86
2024/01/07 10:42:56;;;;;;;26.30;20.50;;;2.70;99.90;;;;;;5094641;28;20667;-85
2024/01/07 10:45:22;;;;;;;25.90;18.67;;;2.60;99.90;;;;;;5094853;28;20188;-87
2024/01/07 10:47:50;;;;;;;24.03;17.87;;;2.60;99.90;;;;;;5094911;28;20221;-88
2024/01/07 10:50:17;;;;;;;19.60;15.50;;;2.80;99.90;;;;;;5095196;28;20171;-85
2024/01/07 10:52:49;;;;;;;20.33;15.10;;;2.50;99.90;;;;;;5093720;28;20207;-87
2024/01/07 10:55:17;;;;;;;25.77;19.37;;;2.40;99.90;;;;;;5095341;28;20172;-87
2024/01/07 10:57:47;;;;;;;26.67;20.77;;;2.40;99.90;;;;;;5094252;28;20194;-86
2024/01/07 11:00:22;;;;;;;19.67;14.73;;;2.50;99.90;;;;;;5093676;28;20183;-87
2024/01/07 11:03:19;;;;;;;23.00;15.70;;;2.40;99.90;;;;;;5094077;28;20333;-87
2024/01/07 11:06:03;;;;;;;28.20;17.10;;;2.40;99.90;;;;;;5093864;28;20176;-83
2024/01/07 11:08:34;;;;;;;26.23;16.03;;;2.40;99.90;;;;;;5094596;28;20186;-85
2024/01/07 11:11:21;;;;;;;20.73;14.07;;;2.40;99.90;;;;;;5094087;28;20513;-84
2024/01/07 11:13:46;;;;;;;20.37;14.47;;;2.30;99.90;;;;;;5094134;28;20233;-82
2024/01/07 11:16:13;;;;;;;17.47;13.50;;;2.20;99.90;;;;;;5095471;28;20172;-82
2024/01/07 11:18:49;;;;;;;19.60;14.57;;;2.50;99.90;;;;;;5093819;28;20206;-86
2024/01/07 11:21:24;;;;;;;23.93;17.60;;;2.40;99.90;;;;;;5094937;28;20167;-85
2024/01/07 11:23:52;;;;;;;21.50;16.73;;;2.40;99.90;;;;;;5093813;28;20225;-83
2024/01/07 11:26:20;;;;;;;23.37;16.37;;;2.40;99.90;;;;;;5094228;28;20199;-87
2024/01/07 11:28:54;;;;;;;22.30;16.03;;;2.40;99.90;;;;;;5105636;28;20223;-86
2024/01/07 11:31:21;;;;;;;24.20;15.63;;;2.50;99.90;;;;;;5107120;28;20183;-85
2024/01/07 11:33:50;;;;;;;20.80;15.20;;;2.60;99.90;;;;;;5093592;28;20176;-87
2024/01/07 11:36:17;;;;;;;20.27;14.87;;;2.60;99.90;;;;;;5093961;28;20179;-85
2024/01/07 11:38:45;;;;;;;18.87;15.40;;;2.50;99.90;;;;;;5093573;28;20172;-83
2024/01/07 11:41:15;;;;;;;21.17;14.03;;;2.60;99.90;;;;;;5093379;28;20267;-86
2024/01/07 11:43:55;;;;;;;18.27;14.47;;;2.50;99.90;;;;;;5093249;28;20297;-87
2024/01/07 11:46:22;;;;;;;19.97;15.77;;;2.70;99.90;;;;;;5093486;28;20235;-86
2024/01/07 11:48:48;;;;;;;20.33;14.63;;;2.60;99.90;;;;;;5095978;28;20179;-85
2024/01/07 11:51:14;;;;;;;20.97;15.73;;;2.60;99.90;;;;;;5093278;28;20171;-86
2024/01/07 11:53:40;;;;;;;20.87;15.53;;;2.70;99.90;;;;;;5093873;28;20644;-85
2024/01/07 11:56:08;;;;;;;22.07;16.10;;;2.50;99.90;;;;;;5093431;28;20191;-87
2024/01/07 11:58:34;;;;;;;17.67;13.93;;;2.60;99.90;;;;;;5092710;28;20179;-88
2024/01/07 12:01:01;;;;;;;22.47;14.93;;;2.50;99.90;;;;;;5092420;28;20647;-87
2024/01/07 12:03:26;;;;;;;20.27;13.57;;;2.40;99.90;;;;;;5093202;28;20218;-86
2024/01/07 12:05:52;;;;;;;22.40;14.83;;;2.40;99.90;;;;;;5092634;28;20171;-83
2024/01/07 12:08:18;;;;;;;18.00;12.57;;;2.30;99.90;;;;;;5092684;28;20188;-85
2024/01/07 12:10:45;;;;;;;13.57;9.60;;;2.40;99.90;;;;;;5092294;28;20198;-85
2024/01/07 12:13:12;;;;;;;18.10;13.93;;;2.40;99.90;;;;;;5091816;28;20167;-83
2024/01/07 12:15:39;;;;;;;17.93;13.00;;;2.30;99.90;;;;;;5093237;28;20255;-85
2024/01/07 12:18:04;;;;;;;16.60;11.63;;;2.40;99.90;;;;;;5092991;28;20266;-85
2024/01/07 12:20:31;;;;;;;20.23;14.17;;;2.30;99.90;;;;;;5093890;28;20240;-84
2024/01/07 12:23:05;;;;;;;19.40;14.10;;;2.40;99.90;;;;;;5092893;28;20195;-86
2024/01/07 12:25:30;;;;;;;18.27;12.50;;;2.50;99.90;;;;;;5092043;28;20203;-84
2024/01/07 12:27:56;;;;;;;14.80;10.57;;;2.70;99.90;;;;;;5092425;28;20167;-87
2024/01/07 12:30:24;;;;;;;13.17;10.87;;;2.50;99.90;;;;;;5093036;28;20167;-86
2024/01/07 12:32:52;;;;;;;17.40;12.20;;;2.40;99.70;;;;;;5092458;28;20187;-84
2024/01/07 12:35:18;;;;;;;18.33;12.30;;;2.40;99.90;;;;;;5092924;28;20595;-85